Time;durP1;ratioP1;P1;durP2;ratioP2;P2;SDS_P1;SDS_P2;PMS_P1;PMS_P2;Temp;Humidity;BMP_temperature;BMP_pressure;BME280_temperature;BME280_humidity;BME280_pressure;Samples;Min_cycle;Max_cycle;Signal;HPM_P1;HPM_P2
2021/04/17 00:01:06;;;;;;;4.20;3.27;;;;;;;9.33;38.57;102537.06;6297360;28;20231;-53
2021/04/17 00:04:28;;;;;;;5.33;3.63;;;;;;;9.13;39.06;102536.59;6305691;28;20235;-53
2021/04/17 00:07:48;;;;;;;5.93;4.83;;;;;;;9.01;39.17;102539.75;6297087;28;20234;-55
2021/04/17 00:11:10;;;;;;;5.07;4.57;;;;;;;8.81;39.40;102535.78;6300530;28;20250;-52
2021/04/17 00:14:34;;;;;;;6.57;4.23;;;;;;;8.95;39.72;102534.41;6305988;28;20242;-51
2021/04/17 00:17:55;;;;;;;7.10;3.93;;;;;;;9.00;39.65;102527.63;6310167;28;20226;-51
2021/04/17 00:21:16;;;;;;;7.07;5.57;;;;;;;9.02;39.38;102525.06;6307796;28;20226;-52
2021/04/17 00:24:36;;;;;;;7.63;4.97;;;;;;;9.03;39.21;102521.59;6297851;28;20231;-51
2021/04/17 00:27:57;;;;;;;7.53;5.10;;;;;;;8.96;39.39;102515.41;6293561;28;20218;-54
2021/04/17 00:31:18;;;;;;;6.37;4.87;;;;;;;8.75;40.16;102515.72;6299237;28;20223;-51
2021/04/17 00:34:38;;;;;;;5.83;4.87;;;;;;;8.91;40.23;102513.53;6298784;28;20325;-51
2021/04/17 00:37:58;;;;;;;6.90;4.07;;;;;;;9.03;40.21;102506.91;6308909;28;20235;-50
2021/04/17 00:41:19;;;;;;;5.10;4.17;;;;;;;9.26;39.18;102510.03;6302626;28;20253;-54
2021/04/17 00:44:40;;;;;;;7.73;4.40;;;;;;;9.04;40.30;102506.06;6302460;28;20529;-53
2021/04/17 00:48:01;;;;;;;5.23;3.67;;;;;;;9.08;40.16;102512.22;6299960;28;20227;-49
2021/04/17 00:51:21;;;;;;;8.40;5.50;;;;;;;9.18;39.79;102521.97;6306108;28;20222;-51
2021/04/17 00:54:42;;;;;;;6.30;4.70;;;;;;;9.19;39.93;102517.66;6315318;28;20221;-51
2021/04/17 00:58:04;;;;;;;6.00;4.30;;;;;;;9.02;40.47;102520.75;6304692;28;20234;-53
2021/04/17 01:01:26;;;;;;;7.33;4.17;;;;;;;8.83;40.68;102514.19;6307139;28;20238;-54
2021/04/17 01:04:49;;;;;;;6.03;3.87;;;;;;;9.02;40.47;102514.66;6311195;28;20234;-51
2021/04/17 01:08:19;;;;;;;5.77;3.93;;;;;;;9.16;40.40;102508.06;6300879;28;20654;-49
2021/04/17 01:11:45;;;;;;;6.77;3.30;;;;;;;8.85;41.43;102511.66;6291257;28;20565;-48
2021/04/17 01:15:08;;;;;;;6.00;3.70;;;;;;;8.75;41.48;102513.13;6305054;28;20230;-57
2021/04/17 01:18:31;;;;;;;5.63;3.40;;;;;;;8.68;41.71;102508.59;6300310;28;20224;-52
2021/04/17 01:21:51;;;;;;;6.13;4.13;;;;;;;8.54;42.00;102504.78;6301076;28;20226;-52
2021/04/17 01:25:17;;;;;;;3.17;2.87;;;;;;;8.47;42.47;102504.63;6302052;28;20238;-52
2021/04/17 01:28:42;;;;;;;4.93;3.43;;;;;;;8.34;42.64;102504.22;6297610;28;20223;-54
2021/04/17 01:32:03;;;;;;;4.33;2.90;;;;;;;8.43;42.42;102502.81;6305028;28;20227;-51
2021/04/17 01:35:24;;;;;;;5.33;3.27;;;;;;;8.48;42.67;102501.19;6310925;28;20553;-54
2021/04/17 01:38:47;;;;;;;4.90;3.77;;;;;;;8.36;43.02;102500.84;6305549;28;20235;-55
2021/04/17 01:42:10;;;;;;;6.57;4.70;;;;;;;8.46;42.44;102495.06;6309775;28;20227;-52
2021/04/17 01:45:33;;;;;;;10.10;3.67;;;;;;;8.55;42.32;102493.53;6298896;28;20242;-52
2021/04/17 01:48:57;;;;;;;7.03;3.73;;;;;;;8.31;42.89;102494.63;6305439;28;20536;-51
2021/04/17 01:52:24;;;;;;;4.10;3.50;;;;;;;8.75;42.06;102492.34;6293722;28;20222;-52
2021/04/17 01:55:46;;;;;;;3.83;3.20;;;;;;;8.44;42.69;102483.75;6303483;28;20226;-51
2021/04/17 01:59:07;;;;;;;5.70;3.70;;;;;;;8.64;42.33;102491.19;6303475;28;20231;-50
2021/04/17 02:02:28;;;;;;;4.37;3.13;;;;;;;8.65;42.57;102482.56;6300016;28;20242;-50
2021/04/17 02:05:49;;;;;;;7.63;4.60;;;;;;;8.62;42.04;102488.56;6304875;28;20227;-51
2021/04/17 02:09:12;;;;;;;7.90;3.17;;;;;;;8.64;42.02;102486.00;6310043;28;20215;-53
2021/04/17 02:12:33;;;;;;;3.00;2.70;;;;;;;8.75;41.75;102474.16;6311309;28;20313;-54
2021/04/17 02:15:58;;;;;;;5.67;3.37;;;;;;;8.82;41.42;102475.19;6297417;28;20223;-53
2021/04/17 02:19:25;;;;;;;3.40;3.07;;;;;;;8.86;41.56;102467.53;6280179;28;20305;-52
2021/04/17 02:22:46;;;;;;;4.57;3.30;;;;;;;8.79;41.46;102455.22;6305556;28;20309;-53
2021/04/17 02:26:06;;;;;;;4.30;3.57;;;;;;;8.78;41.42;102471.66;6304607;28;20321;-54
2021/04/17 02:29:27;;;;;;;3.63;3.10;;;;;;;8.33;42.33;102469.59;6306387;28;20502;-47
2021/04/17 02:32:47;;;;;;;6.53;3.87;;;;;;;8.72;41.83;102462.81;6306113;28;20230;-51
2021/04/17 02:36:09;;;;;;;4.83;3.40;;;;;;;8.67;41.75;102471.38;6299752;28;20226;-53
2021/04/17 02:39:30;;;;;;;4.80;3.33;;;;;;;8.34;42.46;102463.56;6295669;28;20238;-55
2021/04/17 02:42:50;;;;;;;4.33;3.87;;;;;;;8.31;42.79;102466.06;6305049;28;20229;-52
2021/04/17 02:46:11;;;;;;;5.23;3.30;;;;;;;8.53;42.48;102458.88;6291841;28;20226;-48
2021/04/17 02:49:32;;;;;;;5.63;3.83;;;;;;;8.59;42.43;102446.06;6304236;28;20247;-53
2021/04/17 02:52:54;;;;;;;3.57;3.17;;;;;;;8.72;42.30;102449.81;6310269;28;20222;-49
2021/04/17 02:56:14;;;;;;;5.30;3.17;;;;;;;8.62;42.26;102446.13;6302722;28;20226;-52
2021/04/17 02:59:34;;;;;;;6.47;3.50;;;;;;;8.43;41.94;102443.09;6297075;28;20543;-54
2021/04/17 03:02:55;;;;;;;5.30;3.07;;;;;;;8.42;42.77;102438.72;6303582;28;20310;-50
2021/04/17 03:06:15;;;;;;;5.13;3.57;;;;;;;8.57;42.22;102427.84;6298377;28;20251;-52
2021/04/17 03:09:37;;;;;;;5.33;3.60;;;;;;;8.52;42.32;102425.97;6304452;28;20977;-55
2021/04/17 03:12:58;;;;;;;6.53;3.43;;;;;;;8.59;41.83;102428.75;6304270;28;20223;-53
2021/04/17 03:16:18;;;;;;;7.03;5.67;;;;;;;8.80;42.16;102418.03;6278088;28;20237;-53
2021/04/17 03:19:38;;;;;;;4.50;3.53;;;;;;;8.90;41.81;102410.41;6290900;28;20321;-55
2021/04/17 03:22:59;;;;;;;3.63;2.97;;;;;;;8.24;42.93;102420.06;6298138;28;20230;-52
2021/04/17 03:26:20;;;;;;;4.50;3.40;;;;;;;8.47;42.87;102411.16;6300811;28;20226;-52
2021/04/17 03:29:40;;;;;;;5.83;3.20;;;;;;;8.23;43.32;102411.34;6302203;28;20314;-51
2021/04/17 03:33:02;;;;;;;5.47;2.93;;;;;;;8.48;42.73;102407.69;6305717;28;20231;-51
2021/04/17 03:36:22;;;;;;;5.90;3.10;;;;;;;8.47;42.90;102411.16;6291982;28;20230;-48
2021/04/17 03:39:43;;;;;;;5.43;3.73;;;;;;;8.67;42.23;102413.38;6300000;28;20250;-51
2021/04/17 03:43:04;;;;;;;6.57;4.40;;;;;;;8.80;41.66;102414.53;6300825;28;20234;-54
2021/04/17 03:46:25;;;;;;;5.33;3.57;;;;;;;8.46;42.90;102418.91;6303811;28;20231;-54
2021/04/17 03:49:45;;;;;;;8.90;3.90;;;;;;;8.18;43.41;102417.25;6290188;28;20235;-52
2021/04/17 03:53:06;;;;;;;5.80;3.90;;;;;;;8.26;43.36;102418.38;6302146;28;20223;-53
2021/04/17 03:56:26;;;;;;;4.27;3.87;;;;;;;7.99;43.60;102421.09;6295083;28;20249;-48
2021/04/17 03:59:48;;;;;;;4.93;3.30;;;;;;;8.04;44.12;102419.50;6285143;28;20607;-51
2021/04/17 04:03:08;;;;;;;4.07;3.67;;;;;;;8.25;43.49;102414.88;6302131;28;20219;-51
2021/04/17 04:06:28;;;;;;;4.90;3.50;;;;;;;8.32;43.28;102415.94;6306235;28;20234;-52
2021/04/17 04:09:49;;;;;;;6.13;4.03;;;;;;;8.44;42.93;102420.59;6309187;28;20254;-53
2021/04/17 04:13:10;;;;;;;5.20;4.10;;;;;;;8.39;43.24;102414.34;6308154;28;20238;-50
2021/04/17 04:16:31;;;;;;;6.03;3.77;;;;;;;8.15;43.56;102407.69;6297115;28;20761;-52
2021/04/17 04:19:52;;;;;;;6.83;4.60;;;;;;;8.32;43.46;102421.13;6301177;28;20259;-49
2021/04/17 04:23:13;;;;;;;6.17;4.00;;;;;;;8.14;43.80;102425.81;6300753;28;20226;-51
2021/04/17 04:26:33;;;;;;;8.87;6.67;;;;;;;8.11;44.04;102418.84;6295672;28;20227;-54
2021/04/17 04:29:53;;;;;;;5.67;4.73;;;;;;;7.90;44.38;102421.72;6312350;28;20312;-53
2021/04/17 04:33:14;;;;;;;6.17;4.40;;;;;;;8.05;43.85;102422.13;6310106;28;20226;-49
2021/04/17 04:36:35;;;;;;;5.77;4.07;;;;;;;7.97;44.46;102414.97;6308187;28;20228;-53
2021/04/17 04:39:55;;;;;;;7.13;5.00;;;;;;;8.00;44.43;102428.03;6304461;28;20226;-54
2021/04/17 04:43:16;;;;;;;8.37;4.43;;;;;;;8.01;44.35;102422.03;6301486;28;20309;-53
2021/04/17 04:46:36;;;;;;;5.47;3.57;;;;;;;7.98;44.35;102428.00;6304404;28;20668;-53
2021/04/17 04:49:58;;;;;;;5.33;4.27;;;;;;;8.17;44.10;102420.72;6316688;28;22049;-50
2021/04/17 04:53:20;;;;;;;5.27;4.27;;;;;;;8.01;44.52;102420.31;6303964;28;20542;-52
2021/04/17 04:56:40;;;;;;;4.67;3.43;;;;;;;8.08;44.39;102426.53;6316182;28;20652;-50
2021/04/17 05:00:00;;;;;;;5.13;4.37;;;;;;;8.20;44.22;102426.88;6306029;28;20230;-51
2021/04/17 05:03:21;;;;;;;6.00;4.60;;;;;;;8.23;43.95;102431.25;6309923;28;20639;-55
2021/04/17 05:06:42;;;;;;;5.80;4.13;;;;;;;8.35;43.94;102415.97;6305928;28;20506;-48
2021/04/17 05:10:03;;;;;;;5.93;3.67;;;;;;;8.33;43.96;102411.59;6305515;28;20258;-54
2021/04/17 05:13:24;;;;;;;5.63;4.30;;;;;;;8.32;43.93;102417.63;6300936;28;20219;-52
2021/04/17 05:16:44;;;;;;;5.97;4.20;;;;;;;8.39;43.79;102417.81;6306824;28;20246;-52
2021/04/17 05:20:06;;;;;;;4.47;3.67;;;;;;;8.18;44.43;102423.34;6307972;28;20314;-55
2021/04/17 05:23:27;;;;;;;5.77;4.63;;;;;;;8.15;44.55;102425.84;6305158;28;20231;-50
2021/04/17 05:26:48;;;;;;;4.27;3.60;;;;;;;8.22;44.42;102419.09;6307843;28;20223;-52
2021/04/17 05:30:09;;;;;;;5.40;4.00;;;;;;;8.35;44.29;102415.97;6307881;28;20309;-52
2021/04/17 05:33:29;;;;;;;6.57;4.50;;;;;;;8.38;44.86;102413.47;6302500;28;20214;-53
2021/04/17 05:36:50;;;;;;;5.73;3.83;;;;;;;8.26;44.64;102410.59;6303517;28;20576;-51
2021/04/17 05:40:13;;;;;;;5.73;3.43;;;;;;;7.87;46.09;102419.94;6301838;28;20337;-52
2021/04/17 05:43:33;;;;;;;5.80;4.70;;;;;;;8.18;45.61;102414.66;6298304;28;20230;-54
2021/04/17 05:46:53;;;;;;;6.07;4.07;;;;;;;8.76;43.89;102407.50;6311171;28;20309;-55
2021/04/17 05:50:14;;;;;;;9.70;4.17;;;;;;;8.60;44.49;102407.13;6306153;28;20545;-53
2021/04/17 05:53:35;;;;;;;5.10;3.73;;;;;;;8.59;44.65;102401.91;6303162;28;20222;-53
2021/04/17 05:56:56;;;;;;;6.27;3.97;;;;;;;8.44;44.78;102405.00;6308696;28;20249;-50
2021/04/17 06:00:17;;;;;;;5.73;4.30;;;;;;;8.57;44.78;102406.16;6290778;28;20248;-50
2021/04/17 06:03:37;;;;;;;5.50;4.17;;;;;;;8.72;44.24;102403.94;6300734;28;20230;-51
2021/04/17 06:06:57;;;;;;;7.70;4.80;;;;;;;9.07;43.87;102401.28;6309341;28;20275;-55
2021/04/17 06:10:18;;;;;;;6.67;4.43;;;;;;;9.04;43.73;102399.50;6281712;28;20235;-51
2021/04/17 06:13:39;;;;;;;7.37;4.10;;;;;;;8.96;44.55;102400.19;6309758;28;20230;-52
2021/04/17 06:17:00;;;;;;;6.53;3.60;;;;;;;9.19;43.89;102404.19;6299157;28;20599;-52
2021/04/17 06:20:20;;;;;;;4.50;4.10;;;;;;;9.39;43.43;102395.94;6300876;28;20310;-52
2021/04/17 06:23:41;;;;;;;5.47;3.63;;;;;;;9.23;43.43;102400.78;6296561;28;20230;-53
2021/04/17 06:27:01;;;;;;;5.07;3.00;;;;;;;8.93;44.73;102389.72;6304696;28;20235;-49
2021/04/17 06:30:23;;;;;;;5.30;3.60;;;;;;;9.09;44.38;102386.59;6296415;28;20596;-55
2021/04/17 06:33:44;;;;;;;4.30;3.57;;;;;;;9.34;44.37;102384.53;6310934;28;20235;-54
2021/04/17 06:37:04;;;;;;;4.93;3.97;;;;;;;9.46;43.63;102369.22;6307577;28;20305;-54
2021/04/17 06:40:25;;;;;;;5.10;3.43;;;;;;;9.43;43.85;102371.75;6303949;28;20222;-51
2021/04/17 06:43:45;;;;;;;3.87;3.47;;;;;;;9.73;43.53;102378.38;6306036;28;20239;-56
2021/04/17 06:47:08;;;;;;;6.00;4.27;;;;;;;9.70;43.48;102375.75;6305605;28;20242;-50
2021/04/17 06:50:32;;;;;;;8.17;3.17;;;;;;;9.59;43.58;102372.91;6293030;28;20279;-51
2021/04/17 06:53:52;;;;;;;4.50;3.50;;;;;;;9.56;43.75;102362.47;6304425;28;20230;-50
2021/04/17 06:57:13;;;;;;;3.47;3.13;;;;;;;9.88;45.83;102376.06;6304620;28;20234;-50
2021/04/17 07:00:34;;;;;;;6.97;3.90;;;;;;;10.02;43.02;102368.53;6301574;28;20253;-55
2021/04/17 07:03:56;;;;;;;6.40;3.67;;;;;;;10.18;43.15;102374.91;6303265;28;20234;-51
2021/04/17 07:07:16;;;;;;;4.70;3.70;;;;;;;10.25;42.77;102380.25;6302523;28;20227;-55
2021/04/17 07:10:37;;;;;;;5.03;3.63;;;;;;;10.17;43.73;102367.94;6285341;28;20231;-55
2021/04/17 07:14:05;;;;;;;5.97;3.53;;;;;;;10.25;43.27;102368.94;6309114;28;20362;-52
2021/04/17 07:17:25;;;;;;;6.33;4.17;;;;;;;10.67;42.32;102370.50;6313381;28;20317;-49
2021/04/17 07:20:46;;;;;;;4.33;3.60;;;;;;;10.59;42.95;102366.91;6295037;28;20234;-50
2021/04/17 07:24:07;;;;;;;6.17;3.70;;;;;;;10.77;42.42;102361.97;6299404;28;20231;-52
2021/04/17 07:27:36;;;;;;;5.47;4.07;;;;;;;11.31;41.77;102364.44;6308970;28;20223;-50
2021/04/17 07:30:56;;;;;;;5.83;4.17;;;;;;;11.45;41.78;102365.47;6306760;28;20257;-52
2021/04/17 07:34:19;;;;;;;6.07;3.60;;;;;;;11.43;41.23;102364.59;6284358;28;20231;-51
2021/04/17 07:37:42;;;;;;;5.23;3.33;;;;;;;11.61;40.77;102356.09;6300640;28;20262;-53
2021/04/17 07:41:07;;;;;;;6.73;3.37;;;;;;;11.67;40.65;102352.69;6298691;28;20231;-51
2021/04/17 07:44:33;;;;;;;4.20;3.77;;;;;;;11.85;40.61;102347.66;6297405;28;20713;-50
2021/04/17 07:47:55;;;;;;;5.47;3.77;;;;;;;11.84;40.26;102345.91;6305002;28;20612;-51
2021/04/17 07:51:16;;;;;;;6.17;3.67;;;;;;;12.23;39.64;102352.38;6309813;28;20226;-53
2021/04/17 07:54:39;;;;;;;7.67;3.30;;;;;;;12.52;38.89;102331.75;6302913;28;20235;-54
2021/04/17 07:58:01;;;;;;;5.03;2.87;;;;;;;12.60;38.36;102330.03;6311010;28;20215;-53
2021/04/17 08:01:22;;;;;;;4.73;2.90;;;;;;;12.05;39.28;102334.81;6272600;28;20218;-55
2021/04/17 08:04:46;;;;;;;3.83;3.53;;;;;;;12.10;39.85;102334.88;6309534;28;20231;-54
2021/04/17 08:08:06;;;;;;;2.93;2.53;;;;;;;11.74;39.61;102336.25;6316680;28;20573;-54
2021/04/17 08:11:31;;;;;;;5.47;3.20;;;;;;;12.85;44.58;102339.75;6313555;28;20215;-49
2021/04/17 08:14:52;;;;;;;3.50;3.00;;;;;;;12.72;40.27;102337.09;6312926;28;20253;-50
2021/04/17 08:18:13;;;;;;;4.43;3.43;;;;;;;13.63;39.67;102337.53;6314985;28;20226;-54
2021/04/17 08:21:33;;;;;;;7.43;2.87;;;;;;;14.16;40.59;102338.47;6308978;28;20250;-56
2021/04/17 08:24:55;;;;;;;4.50;3.07;;;;;;;14.30;37.52;102339.31;6297499;28;20227;-51
2021/04/17 08:28:21;;;;;;;3.30;2.27;;;;;;;14.17;39.98;102334.94;6313194;28;20230;-53
2021/04/17 08:31:45;;;;;;;2.27;2.07;;;;;;;14.23;38.60;102334.06;6306689;28;20836;-53
2021/04/17 08:35:09;;;;;;;4.10;2.80;;;;;;;14.04;36.51;102338.47;6310773;28;20317;-52
2021/04/17 08:38:35;;;;;;;7.63;2.70;;;;;;;14.35;37.11;102340.19;6309608;28;20312;-52
2021/04/17 08:41:56;;;;;;;2.60;2.20;;;;;;;14.56;36.87;102341.06;6315287;28;20225;-54
2021/04/17 08:45:19;;;;;;;4.20;1.97;;;;;;;14.94;36.07;102342.75;6312755;28;20223;-56
2021/04/17 08:48:51;;;;;;;3.63;2.10;;;;;;;13.92;32.29;102339.28;6312022;28;20254;-52
2021/04/17 08:52:22;;;;;;;4.33;2.70;;;;;;;14.25;32.24;102337.56;6307373;28;20321;-50
2021/04/17 08:55:49;;;;;;;3.40;1.73;;;;;;;14.08;31.85;102333.22;6316065;28;20246;-53
2021/04/17 08:59:10;;;;;;;3.10;1.97;;;;;;;14.20;31.72;102332.34;6308721;28;20218;-56
2021/04/17 09:02:43;;;;;;;4.70;2.37;;;;;;;13.99;31.80;102333.19;6310390;28;20242;-55
2021/04/17 09:06:05;;;;;;;2.73;2.30;;;;;;;14.18;31.85;102327.09;6313620;28;20222;-54
2021/04/17 09:09:29;;;;;;;4.00;2.03;;;;;;;13.81;32.11;102325.34;6312621;28;20222;-54
2021/04/17 09:13:30;;;;;;;7.07;2.83;;;;;;;14.11;32.55;102319.22;6301850;28;20309;-47
2021/04/17 09:16:51;;;;;;;3.97;2.50;;;;;;;14.35;33.52;102318.38;6290776;28;20330;-52
2021/04/17 09:20:37;;;;;;;2.40;2.07;;;;;;;14.53;33.17;102317.47;6308117;28;20241;-53
2021/04/17 09:23:57;;;;;;;4.53;2.27;;;;;;;15.15;32.57;102319.06;6309794;28;20238;-53
2021/04/17 09:27:23;;;;;;;6.00;2.10;;;;;;;15.84;32.12;102315.22;6307618;28;20333;-53
2021/04/17 09:30:49;;;;;;;6.33;2.30;;;;;;;15.63;30.83;102321.44;6308699;28;20530;-49
2021/04/17 09:34:15;;;;;;;3.23;1.87;;;;;;;15.24;30.67;102312.03;6307945;28;20263;-53
2021/04/17 09:37:36;;;;;;;6.77;3.53;;;;;;;15.54;31.09;102314.47;6294771;28;20230;-54
2021/04/17 09:40:58;;;;;;;8.00;5.80;;;;;;;15.21;31.27;102317.28;6293789;28;20231;-53
2021/04/17 09:44:20;;;;;;;2.50;2.27;;;;;;;15.69;31.20;102299.53;6306487;28;20222;-55
2021/04/17 09:47:55;;;;;;;2.07;1.77;;;;;;;15.16;30.22;102312.94;6305239;28;20231;-54
2021/04/17 09:51:19;;;;;;;1.60;1.50;;;;;;;15.43;30.39;102310.16;6285942;28;20233;-54
2021/04/17 09:54:41;;;;;;;3.30;2.00;;;;;;;15.48;30.51;102306.66;6301936;28;20230;-53
2021/04/17 09:58:01;;;;;;;4.43;2.23;;;;;;;15.30;29.94;102301.50;6300860;28;20239;-55
2021/04/17 10:01:22;;;;;;;4.77;2.53;;;;;;;16.22;29.29;102300.88;6296139;28;20227;-54
2021/04/17 10:04:57;;;;;;;5.50;2.17;;;;;;;16.16;29.19;102295.69;6310560;28;20627;-55
2021/04/17 10:08:26;;;;;;;3.97;2.10;;;;;;;15.87;29.97;102302.03;6307582;28;20230;-53
2021/04/17 10:11:48;;;;;;;3.93;2.77;;;;;;;16.57;29.22;102290.91;6307381;28;20230;-54
2021/04/17 10:15:17;;;;;;;1.77;1.63;;;;;;;16.87;29.46;102284.47;6312465;28;20227;-52
2021/04/17 10:18:39;;;;;;;4.83;2.63;;;;;;;16.70;29.18;102293.38;6304804;28;20279;-55
2021/04/17 10:22:01;;;;;;;3.80;2.23;;;;;;;15.75;30.33;102294.25;6302573;28;20234;-54
2021/04/17 10:25:37;;;;;;;2.93;2.33;;;;;;;15.94;30.90;102274.84;6302187;28;20241;-54
2021/04/17 10:28:58;;;;;;;4.43;2.20;;;;;;;16.65;30.25;102274.16;6305326;28;20230;-51
2021/04/17 10:32:21;;;;;;;3.43;1.93;;;;;;;16.86;29.88;102273.06;6305426;28;20313;-56
2021/04/17 10:35:42;;;;;;;4.83;2.23;;;;;;;17.19;29.26;102276.16;6302998;28;20310;-50
2021/04/17 10:39:07;;;;;;;3.63;2.00;;;;;;;17.42;29.38;102267.06;6303334;28;20235;-51
2021/04/17 10:42:45;;;;;;;5.10;2.90;;;;;;;17.56;29.30;102257.19;6302147;28;20222;-53
2021/04/17 10:46:07;;;;;;;4.17;2.60;;;;;;;17.69;28.75;102256.09;6299005;28;20250;-54
2021/04/17 10:49:31;;;;;;;3.63;2.67;;;;;;;17.67;29.61;102257.88;6305681;28;20226;-54
2021/04/17 10:52:58;;;;;;;1.73;1.63;;;;;;;18.36;31.73;102252.34;6290285;28;20226;-54
2021/04/17 10:56:20;;;;;;;3.87;2.13;;;;;;;18.34;30.38;102256.78;6310719;28;20239;-56
2021/04/17 10:59:56;;;;;;;3.93;2.00;;;;;;;18.23;28.80;102257.84;6309339;28;20226;-54
2021/04/17 11:03:18;;;;;;;2.33;1.70;;;;;;;18.98;29.53;102252.00;6308069;28;20234;-54
2021/04/17 11:06:40;;;;;;;1.83;1.57;;;;;;;19.46;28.41;102246.53;6294791;28;20314;-53
2021/04/17 11:10:01;;;;;;;4.00;2.50;;;;;;;19.17;27.37;102260.41;6286130;28;20231;-53
2021/04/17 11:13:30;;;;;;;3.50;1.93;;;;;;;19.65;27.37;102244.31;6287740;28;20215;-56
2021/04/17 11:16:53;;;;;;;3.33;1.50;;;;;;;19.13;29.44;102240.25;6296841;28;20624;-76
2021/04/17 11:20:19;;;;;;;2.90;1.60;;;;;;;19.13;30.82;102241.13;6287830;28;20502;-76
2021/04/17 11:23:42;;;;;;;1.97;1.77;;;;;;;19.43;27.61;102238.69;6299158;28;20234;-75
2021/04/17 11:27:04;;;;;;;3.07;1.67;;;;;;;18.79;25.78;102240.97;6580166;22;20230;-74
2021/04/17 11:30:25;;;;;;;3.93;1.97;;;;;;;19.79;26.50;102239.63;6306103;28;20234;-74
2021/04/17 11:33:48;;;;;;;4.10;1.57;;;;;;;20.85;24.72;102231.44;6290668;28;20499;-75
2021/04/17 11:37:09;;;;;;;2.70;1.90;;;;;;;20.86;24.42;102237.59;6310954;28;20246;-75
2021/04/17 11:40:30;;;;;;;4.35;3.92;;;;;;;22.16;22.84;102231.66;6315364;28;20226;-73
2021/04/17 11:43:51;;;;;;;1.80;1.50;;;;;;;24.46;19.89;102220.72;6306768;28;20230;-74
2021/04/17 11:47:11;;;;;;;3.20;1.65;;;;;;;26.65;18.31;102233.00;6314063;28;20237;-74
2021/04/17 11:50:32;;;;;;;1.90;1.48;;;;;;;27.09;17.30;102235.00;6313645;28;20234;-74
2021/04/17 11:53:54;;;;;;;2.72;1.77;;;;;;;28.91;15.04;102224.13;6308981;28;20250;-76
2021/04/17 11:57:14;;;;;;;3.30;2.05;;;;;;;28.16;15.90;102231.50;6312366;28;20299;-75
2021/04/17 12:00:34;;;;;;;2.38;1.70;;;;;;;29.99;14.36;102217.84;6311547;28;20219;-74
2021/04/17 12:03:55;;;;;;;3.22;1.52;;;;;;;30.84;13.51;102224.41;6290822;28;20235;-74
2021/04/17 12:07:17;;;;;;;2.22;1.67;;;;;;;31.23;13.55;102222.44;6312862;28;20242;-74
2021/04/17 12:10:38;;;;;;;1.85;1.42;;;;;;;31.58;12.84;102223.38;6309232;28;20230;-73
2021/04/17 12:13:59;;;;;;;1.70;1.42;;;;;;;32.64;11.58;102224.13;6303057;28;20234;-75
2021/04/17 12:17:20;;;;;;;3.35;2.00;;;;;;;31.92;12.59;102225.28;6312657;28;20234;-74
2021/04/17 12:20:41;;;;;;;2.33;1.60;;;;;;;32.40;12.38;102226.94;6295660;28;20226;-76
2021/04/17 12:24:15;;;;;;;2.30;1.90;;;;;;;30.80;13.09;102221.94;6334465;27;20864;-75
2021/04/17 12:27:36;;;;;;;4.32;1.35;;;;;;;31.58;12.02;102220.69;6311230;27;20292;-75
2021/04/17 12:30:58;;;;;;;5.43;1.90;;;;;;;31.37;12.57;102224.97;6308563;27;20249;-75
2021/04/17 12:34:19;;;;;;;4.45;1.73;;;;;;;30.27;13.85;102217.72;6295578;28;20226;-74
2021/04/17 12:37:39;;;;;;;4.63;2.20;;;;;;;30.65;13.75;102220.38;6301208;27;20238;-75
2021/04/17 12:41:01;;;;;;;3.05;1.83;;;;;;;29.82;14.23;102210.09;6293427;28;20238;-73
2021/04/17 12:44:21;;;;;;;2.25;1.75;;;;;;;30.38;13.43;102218.69;6312764;27;20229;-74
2021/04/17 12:47:42;;;;;;;4.40;2.22;;;;;;;29.91;13.99;102220.16;6295937;28;20552;-72
2021/04/17 12:51:02;;;;;;;6.65;2.65;;;;;;;30.34;13.99;102222.59;6308704;28;20607;-74
2021/04/17 12:54:23;;;;;;;2.15;1.85;;;;;;;30.94;13.74;102214.72;6308319;28;20568;-75
2021/04/17 12:57:44;;;;;;;2.13;1.70;;;;;;;31.42;13.28;102213.84;6305859;28;20239;-74
2021/04/17 13:01:06;;;;;;;2.78;2.10;;;;;;;29.22;14.46;102216.78;6295018;28;20512;-74
2021/04/17 13:04:27;;;;;;;2.97;2.38;;;;;;;28.99;14.72;102212.91;6314984;28;20230;-56
2021/04/17 13:07:47;;;;;;;3.58;1.73;;;;;;;30.47;13.60;102198.34;6287687;28;20235;-53
2021/04/17 13:11:07;;;;;;;2.55;1.80;;;;;;;25.84;17.54;102205.22;6303444;28;20234;-55
2021/04/17 13:14:29;;;;;;;5.25;2.67;;;;;;;23.76;19.42;102207.75;6301361;28;20938;-51
2021/04/17 13:17:50;;;;;;;5.85;2.70;;;;;;;24.16;19.48;102206.06;6293483;28;20227;-51
2021/04/17 13:21:11;;;;;;;2.35;1.55;;;;;;;27.59;16.39;102205.47;6287212;28;20223;-54
2021/04/17 13:24:31;;;;;;;3.28;2.13;;;;;;;28.43;15.79;102203.00;6307968;28;20313;-53
2021/04/17 13:27:52;;;;;;;4.65;2.53;;;;;;;29.10;15.24;102204.13;6303977;28;20800;-53
2021/04/17 13:31:14;;;;;;;3.17;2.30;;;;;;;25.90;17.46;102207.56;6300120;28;20226;-54
2021/04/17 13:34:34;;;;;;;4.07;3.40;;;;;;;28.32;16.59;102199.28;6284358;28;20231;-68
2021/04/17 13:37:55;;;;;;;3.67;2.50;;;;;;;28.93;15.56;102200.75;6277412;28;20251;-69
2021/04/17 13:41:15;;;;;;;4.00;2.30;;;;;;;29.01;16.29;102192.22;6280615;28;20658;-67
2021/04/17 13:44:36;;;;;;;6.43;2.85;;;;;;;26.99;17.34;102192.84;6281775;28;20223;-67
2021/04/17 13:47:57;;;;;;;2.75;2.30;;;;;;;28.41;16.88;102188.84;6290206;28;20227;-69
2021/04/17 13:51:18;;;;;;;6.72;3.08;;;;;;;28.02;17.13;102176.13;6282064;28;20232;-68
2021/04/17 13:54:38;;;;;;;5.47;2.53;;;;;;;28.32;16.96;102183.19;6280431;28;20235;-68
2021/04/17 13:57:59;;;;;;;4.57;2.47;;;;;;;27.98;16.85;102191.50;6281007;28;20626;-68
2021/04/17 14:01:20;;;;;;;5.15;2.67;;;;;;;27.64;17.69;102185.47;6276508;28;20232;-68
2021/04/17 14:04:42;;;;;;;5.13;3.05;;;;;;;26.97;17.75;102186.72;6292571;28;20717;-70
2021/04/17 14:08:02;;;;;;;4.68;2.67;;;;;;;25.82;18.73;102186.63;6294106;28;20215;-67
2021/04/17 14:11:23;;;;;;;4.72;3.42;;;;;;;24.35;20.84;102194.59;6292039;28;20226;-68
2021/04/17 14:14:43;;;;;;;5.07;3.75;;;;;;;25.34;19.93;102183.72;6290209;28;20223;-68
2021/04/17 14:18:05;;;;;;;3.97;2.75;;;;;;;24.07;20.27;102185.19;6291550;28;20239;-68
2021/04/17 14:21:26;;;;;;;4.90;2.28;;;;;;;24.41;20.53;102183.66;6291679;28;20227;-69
2021/04/17 14:24:46;;;;;;;3.72;2.53;;;;;;;24.31;21.33;102191.22;6285337;28;20231;-66
2021/04/17 14:28:07;;;;;;;4.88;2.45;;;;;;;23.81;21.12;102188.09;6286517;28;20231;-67
2021/04/17 14:31:28;;;;;;;3.88;2.47;;;;;;;22.67;22.29;102196.19;6279867;28;20609;-68
2021/04/17 14:34:48;;;;;;;10.10;2.58;;;;;;;22.68;22.26;102194.38;6279189;28;20234;-71
2021/04/17 14:38:10;;;;;;;3.08;2.08;;;;;;;22.61;22.59;102191.97;6294825;28;20231;-70
2021/04/17 14:41:31;;;;;;;3.05;2.33;;;;;;;22.44;23.14;102196.19;6275125;28;20232;-70
2021/04/17 14:44:51;;;;;;;3.85;3.42;;;;;;;22.84;23.37;102190.22;6279864;28;20238;-71
2021/04/17 14:48:12;;;;;;;4.82;2.85;;;;;;;22.33;22.44;102181.53;6279811;28;20235;-69
2021/04/17 14:51:33;;;;;;;4.80;3.17;;;;;;;21.89;23.72;102178.66;6274422;28;20286;-71
2021/04/17 14:54:56;;;;;;;3.97;2.50;;;;;;;21.66;24.00;102171.50;6278764;28;20334;-70
2021/04/17 14:58:17;;;;;;;7.28;3.50;;;;;;;21.47;23.57;102175.69;6279496;28;20310;-71
2021/04/17 15:01:37;;;;;;;8.73;3.45;;;;;;;20.94;25.18;102166.75;6287775;28;24790;-68
2021/04/17 15:04:57;;;;;;;4.60;2.85;;;;;;;21.58;24.37;102173.56;6290280;28;20231;-70
2021/04/17 15:08:18;;;;;;;3.42;3.13;;;;;;;21.55;24.18;102173.66;6275692;28;20227;-70
2021/04/17 15:11:39;;;;;;;4.63;2.75;;;;;;;;;;6291984;28;20226;-71
2021/04/17 15:14:59;;;;;;;3.50;2.45;;;;;;;22.03;24.05;102175.53;6271440;28;20235;-70
2021/04/17 15:18:21;;;;;;;6.28;2.88;;;;;;;21.13;24.56;102167.03;6283068;28;20279;-69
2021/04/17 15:21:43;;;;;;;5.38;2.58;;;;;;;22.09;24.44;102177.09;6280110;28;20231;-69
2021/04/17 15:25:04;;;;;;;2.90;2.28;;;;;;;22.35;23.98;102170.84;6276922;28;20227;-69
2021/04/17 15:28:27;;;;;;;6.68;2.97;;;;;;;22.17;23.25;102170.56;6287315;28;20239;-68
2021/04/17 15:31:48;;;;;;;6.57;3.75;;;;;;;21.45;23.99;102161.63;6276230;28;20232;-67
2021/04/17 15:35:10;;;;;;;4.22;3.05;;;;;;;21.82;24.37;102167.38;6277990;28;20739;-67
2021/04/17 15:38:30;;;;;;;6.22;3.92;;;;;;;21.88;25.36;102176.91;6280342;28;20239;-64
2021/04/17 15:41:52;;;;;;;3.38;3.08;;;;;;;22.21;24.31;102164.22;6288591;28;20235;-64
2021/04/17 15:45:14;;;;;;;6.13;3.20;;;;;;;22.17;23.23;102159.09;6284819;28;20235;-64